sensor_id;sensor_type;location;lat;lon;timestamp;temperature;humidity
5027;DHT22;2532;52.480;13.354;2024-03-08T00:00:17;5.40;85.60
5027;DHT22;2532;52.480;13.354;2024-03-08T00:02:45;5.30;85.60
5027;DHT22;2532;52.480;13.354;2024-03-08T00:05:14;5.40;85.80
5027;DHT22;2532;52.480;13.354;2024-03-08T00:07:42;5.30;85.80
5027;DHT22;2532;52.480;13.354;2024-03-08T00:10:11;5.30;85.80
5027;DHT22;2532;52.480;13.354;2024-03-08T00:12:39;5.30;86.00
5027;DHT22;2532;52.480;13.354;2024-03-08T00:15:08;5.30;86.10
5027;DHT22;2532;52.480;13.354;2024-03-08T00:17:38;5.30;86.20
5027;DHT22;2532;52.480;13.354;2024-03-08T00:20:06;5.30;86.30
5027;DHT22;2532;52.480;13.354;2024-03-08T00:22:35;5.20;87.10
5027;DHT22;2532;52.480;13.354;2024-03-08T00:25:03;5.30;86.70
5027;DHT22;2532;52.480;13.354;2024-03-08T00:27:30;5.20;86.70
5027;DHT22;2532;52.480;13.354;2024-03-08T00:29:58;5.20;86.70
5027;DHT22;2532;52.480;13.354;2024-03-08T00:32:25;5.20;86.70
5027;DHT22;2532;52.480;13.354;2024-03-08T00:34:53;5.20;86.70
5027;DHT22;2532;52.480;13.354;2024-03-08T00:37:20;5.20;86.90
5027;DHT22;2532;52.480;13.354;2024-03-08T00:39:48;5.20;87.00
5027;DHT22;2532;52.480;13.354;2024-03-08T00:42:16;5.10;87.20
5027;DHT22;2532;52.480;13.354;2024-03-08T00:44:43;5.10;87.20
5027;DHT22;2532;52.480;13.354;2024-03-08T00:47:10;5.10;87.30
5027;DHT22;2532;52.480;13.354;2024-03-08T00:49:37;5.10;87.40
5027;DHT22;2532;52.480;13.354;2024-03-08T00:52:05;5.10;87.40
5027;DHT22;2532;52.480;13.354;2024-03-08T00:54:32;5.10;87.50
5027;DHT22;2532;52.480;13.354;2024-03-08T00:57:01;5.10;87.40
5027;DHT22;2532;52.480;13.354;2024-03-08T00:59:28;5.00;87.20
5027;DHT22;2532;52.480;13.354;2024-03-08T01:01:55;5.00;87.20
5027;DHT22;2532;52.480;13.354;2024-03-08T01:04:22;5.00;87.30
5027;DHT22;2532;52.480;13.354;2024-03-08T01:06:51;5.00;87.50
5027;DHT22;2532;52.480;13.354;2024-03-08T01:09:18;5.00;87.50
5027;DHT22;2532;52.480;13.354;2024-03-08T01:11:47;5.00;87.70
5027;DHT22;2532;52.480;13.354;2024-03-08T01:14:16;5.00;87.70
5027;DHT22;2532;52.480;13.354;2024-03-08T01:16:43;5.00;87.70
5027;DHT22;2532;52.480;13.354;2024-03-08T01:19:10;5.00;87.70
5027;DHT22;2532;52.480;13.354;2024-03-08T01:21:37;5.00;87.60
5027;DHT22;2532;52.480;13.354;2024-03-08T01:24:04;5.00;87.60
5027;DHT22;2532;52.480;13.354;2024-03-08T01:26:31;4.90;87.50
5027;DHT22;2532;52.480;13.354;2024-03-08T01:29:00;4.90;87.50
5027;DHT22;2532;52.480;13.354;2024-03-08T01:31:30;4.90;87.50
5027;DHT22;2532;52.480;13.354;2024-03-08T01:33:57;4.90;87.60
5027;DHT22;2532;52.480;13.354;2024-03-08T01:36:25;4.90;87.70
5027;DHT22;2532;52.480;13.354;2024-03-08T01:38:52;4.90;87.70
5027;DHT22;2532;52.480;13.354;2024-03-08T01:41:19;4.90;87.70
5027;DHT22;2532;52.480;13.354;2024-03-08T01:43:46;4.90;87.80
5027;DHT22;2532;52.480;13.354;2024-03-08T01:46:17;4.80;87.60
5027;DHT22;2532;52.480;13.354;2024-03-08T01:48:45;4.80;87.60
5027;DHT22;2532;52.480;13.354;2024-03-08T01:51:13;4.80;87.70
5027;DHT22;2532;52.480;13.354;2024-03-08T01:53:41;4.80;87.80
5027;DHT22;2532;52.480;13.354;2024-03-08T01:56:11;4.80;87.90
5027;DHT22;2532;52.480;13.354;2024-03-08T01:58:40;4.70;88.10
5027;DHT22;2532;52.480;13.354;2024-03-08T02:01:09;4.70;88.00
5027;DHT22;2532;52.480;13.354;2024-03-08T02:03:38;4.70;88.20
5027;DHT22;2532;52.480;13.354;2024-03-08T02:06:06;4.70;88.30
5027;DHT22;2532;52.480;13.354;2024-03-08T02:08:36;4.70;88.50
5027;DHT22;2532;52.480;13.354;2024-03-08T02:11:04;4.70;88.60
5027;DHT22;2532;52.480;13.354;2024-03-08T02:13:31;4.70;88.60
5027;DHT22;2532;52.480;13.354;2024-03-08T02:15:59;4.70;88.60
5027;DHT22;2532;52.480;13.354;2024-03-08T02:18:27;4.70;88.70
5027;DHT22;2532;52.480;13.354;2024-03-08T02:20:57;4.70;88.70
5027;DHT22;2532;52.480;13.354;2024-03-08T02:23:25;4.70;88.70
5027;DHT22;2532;52.480;13.354;2024-03-08T02:25:53;4.70;88.80
5027;DHT22;2532;52.480;13.354;2024-03-08T02:28:21;4.70;88.90
5027;DHT22;2532;52.480;13.354;2024-03-08T02:30:48;4.70;88.90
5027;DHT22;2532;52.480;13.354;2024-03-08T02:33:16;4.70;88.90
5027;DHT22;2532;52.480;13.354;2024-03-08T02:35:44;4.60;88.80
5027;DHT22;2532;52.480;13.354;2024-03-08T02:38:13;4.60;88.70
5027;DHT22;2532;52.480;13.354;2024-03-08T02:40:41;4.60;88.80
5027;DHT22;2532;52.480;13.354;2024-03-08T02:43:08;4.60;88.90
5027;DHT22;2532;52.480;13.354;2024-03-08T02:45:35;4.60;88.80
5027;DHT22;2532;52.480;13.354;2024-03-08T02:48:03;4.60;88.90
5027;DHT22;2532;52.480;13.354;2024-03-08T02:50:32;4.60;89.00
5027;DHT22;2532;52.480;13.354;2024-03-08T02:52:58;4.60;89.10
5027;DHT22;2532;52.480;13.354;2024-03-08T02:55:27;4.60;89.00
5027;DHT22;2532;52.480;13.354;2024-03-08T02:57:55;4.60;89.00
5027;DHT22;2532;52.480;13.354;2024-03-08T03:00:22;4.50;89.00
5027;DHT22;2532;52.480;13.354;2024-03-08T03:02:50;4.50;89.00
5027;DHT22;2532;52.480;13.354;2024-03-08T03:05:19;4.50;89.20
5027;DHT22;2532;52.480;13.354;2024-03-08T03:07:46;4.50;89.30
5027;DHT22;2532;52.480;13.354;2024-03-08T03:10:14;4.40;89.50
5027;DHT22;2532;52.480;13.354;2024-03-08T03:12:44;4.40;89.60
5027;DHT22;2532;52.480;13.354;2024-03-08T03:15:11;4.40;89.70
5027;DHT22;2532;52.480;13.354;2024-03-08T03:17:39;4.40;90.10
5027;DHT22;2532;52.480;13.354;2024-03-08T03:20:07;4.30;89.60
5027;DHT22;2532;52.480;13.354;2024-03-08T03:22:38;4.30;89.80
5027;DHT22;2532;52.480;13.354;2024-03-08T03:25:07;4.30;90.00
5027;DHT22;2532;52.480;13.354;2024-03-08T03:27:35;4.30;90.00
5027;DHT22;2532;52.480;13.354;2024-03-08T03:30:05;4.30;90.00
5027;DHT22;2532;52.480;13.354;2024-03-08T03:32:46;4.30;90.00
5027;DHT22;2532;52.480;13.354;2024-03-08T03:35:13;4.30;90.10
5027;DHT22;2532;52.480;13.354;2024-03-08T03:37:41;4.30;90.10
5027;DHT22;2532;52.480;13.354;2024-03-08T03:40:12;4.20;90.10
5027;DHT22;2532;52.480;13.354;2024-03-08T03:42:39;4.20;90.10
5027;DHT22;2532;52.480;13.354;2024-03-08T03:45:08;4.20;90.20
5027;DHT22;2532;52.480;13.354;2024-03-08T03:47:36;4.20;90.30
5027;DHT22;2532;52.480;13.354;2024-03-08T03:50:04;4.20;90.30
5027;DHT22;2532;52.480;13.354;2024-03-08T03:52:31;4.10;90.30
5027;DHT22;2532;52.480;13.354;2024-03-08T03:54:58;4.10;90.40
5027;DHT22;2532;52.480;13.354;2024-03-08T03:57:25;4.20;90.40
5027;DHT22;2532;52.480;13.354;2024-03-08T03:59:52;4.20;90.40
5027;DHT22;2532;52.480;13.354;2024-03-08T04:02:20;4.10;90.30
5027;DHT22;2532;52.480;13.354;2024-03-08T04:04:47;4.10;90.40
5027;DHT22;2532;52.480;13.354;2024-03-08T04:07:14;4.10;90.50
5027;DHT22;2532;52.480;13.354;2024-03-08T04:09:42;4.10;90.50
5027;DHT22;2532;52.480;13.354;2024-03-08T04:12:09;4.10;90.90
5027;DHT22;2532;52.480;13.354;2024-03-08T04:14:36;4.10;90.60
5027;DHT22;2532;52.480;13.354;2024-03-08T04:17:03;4.10;90.60
5027;DHT22;2532;52.480;13.354;2024-03-08T04:19:33;4.10;90.60
5027;DHT22;2532;52.480;13.354;2024-03-08T04:22:00;4.10;90.60
5027;DHT22;2532;52.480;13.354;2024-03-08T04:24:28;4.10;90.70
5027;DHT22;2532;52.480;13.354;2024-03-08T04:26:56;4.10;90.70
5027;DHT22;2532;52.480;13.354;2024-03-08T04:29:24;4.10;90.70
5027;DHT22;2532;52.480;13.354;2024-03-08T04:31:52;4.10;90.80
5027;DHT22;2532;52.480;13.354;2024-03-08T04:34:19;4.00;90.80
5027;DHT22;2532;52.480;13.354;2024-03-08T04:36:48;4.00;90.90
5027;DHT22;2532;52.480;13.354;2024-03-08T04:39:15;4.00;90.90
5027;DHT22;2532;52.480;13.354;2024-03-08T04:41:44;4.00;91.00
5027;DHT22;2532;52.480;13.354;2024-03-08T04:44:11;4.00;91.00
5027;DHT22;2532;52.480;13.354;2024-03-08T04:46:39;4.00;91.10
5027;DHT22;2532;52.480;13.354;2024-03-08T04:49:06;3.90;91.10
5027;DHT22;2532;52.480;13.354;2024-03-08T04:51:34;3.90;91.10
5027;DHT22;2532;52.480;13.354;2024-03-08T04:54:02;3.90;91.20
5027;DHT22;2532;52.480;13.354;2024-03-08T04:56:30;3.90;91.30
5027;DHT22;2532;52.480;13.354;2024-03-08T04:58:57;3.80;91.30
5027;DHT22;2532;52.480;13.354;2024-03-08T05:01:24;3.80;91.40
5027;DHT22;2532;52.480;13.354;2024-03-08T05:03:51;3.80;91.50
5027;DHT22;2532;52.480;13.354;2024-03-08T05:06:20;3.80;91.60
5027;DHT22;2532;52.480;13.354;2024-03-08T05:08:49;3.70;91.50
5027;DHT22;2532;52.480;13.354;2024-03-08T05:11:17;3.70;91.60
5027;DHT22;2532;52.480;13.354;2024-03-08T05:13:44;3.70;91.60
5027;DHT22;2532;52.480;13.354;2024-03-08T05:16:11;3.70;91.70
5027;DHT22;2532;52.480;13.354;2024-03-08T05:18:41;3.70;91.80
5027;DHT22;2532;52.480;13.354;2024-03-08T05:21:08;3.70;91.80
5027;DHT22;2532;52.480;13.354;2024-03-08T05:23:36;3.70;91.80
5027;DHT22;2532;52.480;13.354;2024-03-08T05:26:04;3.70;91.90
5027;DHT22;2532;52.480;13.354;2024-03-08T05:28:33;3.70;91.90
5027;DHT22;2532;52.480;13.354;2024-03-08T05:31:00;3.60;91.90
5027;DHT22;2532;52.480;13.354;2024-03-08T05:33:28;3.60;92.00
5027;DHT22;2532;52.480;13.354;2024-03-08T05:35:55;3.60;92.00
5027;DHT22;2532;52.480;13.354;2024-03-08T05:38:22;3.60;92.10
5027;DHT22;2532;52.480;13.354;2024-03-08T05:40:50;3.60;92.20
5027;DHT22;2532;52.480;13.354;2024-03-08T05:43:17;3.60;92.30
5027;DHT22;2532;52.480;13.354;2024-03-08T05:45:46;3.60;92.30
5027;DHT22;2532;52.480;13.354;2024-03-08T05:48:13;3.60;92.40
5027;DHT22;2532;52.480;13.354;2024-03-08T05:50:40;3.60;92.40
5027;DHT22;2532;52.480;13.354;2024-03-08T05:53:09;3.60;92.70
5027;DHT22;2532;52.480;13.354;2024-03-08T05:55:36;3.60;92.40
5027;DHT22;2532;52.480;13.354;2024-03-08T05:58:03;3.60;92.50
5027;DHT22;2532;52.480;13.354;2024-03-08T06:00:33;3.60;92.50
5027;DHT22;2532;52.480;13.354;2024-03-08T06:03:03;3.60;92.40
5027;DHT22;2532;52.480;13.354;2024-03-08T06:05:30;3.60;92.40
5027;DHT22;2532;52.480;13.354;2024-03-08T06:07:57;3.60;92.50
5027;DHT22;2532;52.480;13.354;2024-03-08T06:10:24;3.60;92.50
5027;DHT22;2532;52.480;13.354;2024-03-08T06:12:51;3.60;92.60
5027;DHT22;2532;52.480;13.354;2024-03-08T06:15:18;3.60;92.60
5027;DHT22;2532;52.480;13.354;2024-03-08T06:17:46;3.70;92.60
5027;DHT22;2532;52.480;13.354;2024-03-08T06:20:15;3.60;92.60
5027;DHT22;2532;52.480;13.354;2024-03-08T06:22:42;3.70;92.70
5027;DHT22;2532;52.480;13.354;2024-03-08T06:25:10;3.70;92.50
5027;DHT22;2532;52.480;13.354;2024-03-08T06:27:40;3.70;92.50
5027;DHT22;2532;52.480;13.354;2024-03-08T06:30:09;3.70;92.50
5027;DHT22;2532;52.480;13.354;2024-03-08T06:32:36;3.70;92.60
5027;DHT22;2532;52.480;13.354;2024-03-08T06:35:03;3.70;92.60
5027;DHT22;2532;52.480;13.354;2024-03-08T06:37:33;3.70;92.60
5027;DHT22;2532;52.480;13.354;2024-03-08T06:40:00;3.70;92.70
5027;DHT22;2532;52.480;13.354;2024-03-08T06:42:27;3.60;92.90
5027;DHT22;2532;52.480;13.354;2024-03-08T06:44:54;3.60;92.60
5027;DHT22;2532;52.480;13.354;2024-03-08T06:47:29;3.60;92.70
5027;DHT22;2532;52.480;13.354;2024-03-08T06:49:55;3.60;92.90
5027;DHT22;2532;52.480;13.354;2024-03-08T06:52:22;3.50;92.90
5027;DHT22;2532;52.480;13.354;2024-03-08T06:54:51;3.60;92.90
5027;DHT22;2532;52.480;13.354;2024-03-08T06:57:18;3.60;92.90
5027;DHT22;2532;52.480;13.354;2024-03-08T06:59:47;3.60;92.80
5027;DHT22;2532;52.480;13.354;2024-03-08T07:02:14;3.60;92.80
5027;DHT22;2532;52.480;13.354;2024-03-08T07:04:41;3.60;92.80
5027;DHT22;2532;52.480;13.354;2024-03-08T07:07:08;3.60;92.90
5027;DHT22;2532;52.480;13.354;2024-03-08T07:09:36;3.60;92.80
5027;DHT22;2532;52.480;13.354;2024-03-08T07:12:05;3.70;92.80
5027;DHT22;2532;52.480;13.354;2024-03-08T07:14:32;3.70;92.80
5027;DHT22;2532;52.480;13.354;2024-03-08T07:16:59;3.70;92.70
5027;DHT22;2532;52.480;13.354;2024-03-08T07:19:26;3.80;92.80
5027;DHT22;2532;52.480;13.354;2024-03-08T07:21:53;3.80;92.70
5027;DHT22;2532;52.480;13.354;2024-03-08T07:24:20;3.90;92.60
5027;DHT22;2532;52.480;13.354;2024-03-08T07:27:06;3.90;92.50
5027;DHT22;2532;52.480;13.354;2024-03-08T07:29:33;4.00;92.20
5027;DHT22;2532;52.480;13.354;2024-03-08T07:32:01;4.00;92.10
5027;DHT22;2532;52.480;13.354;2024-03-08T07:34:40;4.10;92.10
5027;DHT22;2532;52.480;13.354;2024-03-08T07:37:07;4.20;92.00
5027;DHT22;2532;52.480;13.354;2024-03-08T07:39:37;4.20;92.00
5027;DHT22;2532;52.480;13.354;2024-03-08T07:42:06;4.30;91.90
5027;DHT22;2532;52.480;13.354;2024-03-08T07:44:33;4.40;91.70
5027;DHT22;2532;52.480;13.354;2024-03-08T07:47:00;4.40;91.60
5027;DHT22;2532;52.480;13.354;2024-03-08T07:49:27;4.40;91.50
5027;DHT22;2532;52.480;13.354;2024-03-08T07:51:54;4.50;91.60
5027;DHT22;2532;52.480;13.354;2024-03-08T07:54:21;4.50;91.60
5027;DHT22;2532;52.480;13.354;2024-03-08T07:56:48;4.60;91.40
5027;DHT22;2532;52.480;13.354;2024-03-08T07:59:18;4.60;91.40
5027;DHT22;2532;52.480;13.354;2024-03-08T08:01:46;4.70;91.40
5027;DHT22;2532;52.480;13.354;2024-03-08T08:04:13;4.80;91.90
5027;DHT22;2532;52.480;13.354;2024-03-08T08:06:43;5.10;94.90
5027;DHT22;2532;52.480;13.354;2024-03-08T08:09:10;5.20;93.50
5027;DHT22;2532;52.480;13.354;2024-03-08T08:11:40;5.40;92.90
5027;DHT22;2532;52.480;13.354;2024-03-08T08:14:09;5.60;93.90
5027;DHT22;2532;52.480;13.354;2024-03-08T08:16:37;5.80;92.80
5027;DHT22;2532;52.480;13.354;2024-03-08T08:19:07;5.90;92.40
5027;DHT22;2532;52.480;13.354;2024-03-08T08:21:34;6.00;91.60
5027;DHT22;2532;52.480;13.354;2024-03-08T08:24:02;6.10;90.80
5027;DHT22;2532;52.480;13.354;2024-03-08T08:26:30;6.20;90.80
5027;DHT22;2532;52.480;13.354;2024-03-08T08:28:58;6.20;90.30
5027;DHT22;2532;52.480;13.354;2024-03-08T08:31:26;6.20;89.40
5027;DHT22;2532;52.480;13.354;2024-03-08T08:33:54;6.20;88.90
5027;DHT22;2532;52.480;13.354;2024-03-08T08:36:24;6.20;89.00
5027;DHT22;2532;52.480;13.354;2024-03-08T08:38:51;6.20;88.50
5027;DHT22;2532;52.480;13.354;2024-03-08T08:41:19;6.10;88.10
5027;DHT22;2532;52.480;13.354;2024-03-08T08:43:47;6.10;88.20
5027;DHT22;2532;52.480;13.354;2024-03-08T08:46:17;6.10;88.30
5027;DHT22;2532;52.480;13.354;2024-03-08T08:48:44;6.10;88.20
5027;DHT22;2532;52.480;13.354;2024-03-08T08:51:13;6.10;87.90
5027;DHT22;2532;52.480;13.354;2024-03-08T08:53:41;6.10;87.80
5027;DHT22;2532;52.480;13.354;2024-03-08T08:56:11;6.10;87.80
5027;DHT22;2532;52.480;13.354;2024-03-08T08:58:41;6.20;87.70
5027;DHT22;2532;52.480;13.354;2024-03-08T09:01:09;6.30;86.80
5027;DHT22;2532;52.480;13.354;2024-03-08T09:03:37;6.40;86.30
5027;DHT22;2532;52.480;13.354;2024-03-08T09:06:06;6.40;86.20
5027;DHT22;2532;52.480;13.354;2024-03-08T09:08:36;6.40;85.80
5027;DHT22;2532;52.480;13.354;2024-03-08T09:11:04;6.50;86.40
5027;DHT22;2532;52.480;13.354;2024-03-08T09:13:31;6.50;85.80
5027;DHT22;2532;52.480;13.354;2024-03-08T09:15:59;6.60;85.60
5027;DHT22;2532;52.480;13.354;2024-03-08T09:18:26;6.60;84.80
5027;DHT22;2532;52.480;13.354;2024-03-08T09:20:53;6.70;85.10
5027;DHT22;2532;52.480;13.354;2024-03-08T09:23:20;6.70;84.70
5027;DHT22;2532;52.480;13.354;2024-03-08T09:25:49;6.80;84.80
5027;DHT22;2532;52.480;13.354;2024-03-08T09:28:16;6.80;84.80
5027;DHT22;2532;52.480;13.354;2024-03-08T09:30:43;6.90;84.50
5027;DHT22;2532;52.480;13.354;2024-03-08T09:33:13;6.90;83.80
5027;DHT22;2532;52.480;13.354;2024-03-08T09:35:47;7.00;84.10
5027;DHT22;2532;52.480;13.354;2024-03-08T09:38:14;7.10;83.80
5027;DHT22;2532;52.480;13.354;2024-03-08T09:40:41;7.10;83.10
5027;DHT22;2532;52.480;13.354;2024-03-08T09:43:09;7.20;83.30
5027;DHT22;2532;52.480;13.354;2024-03-08T09:45:37;7.30;83.20
5027;DHT22;2532;52.480;13.354;2024-03-08T09:48:10;7.30;82.30
5027;DHT22;2532;52.480;13.354;2024-03-08T09:50:39;7.40;82.00
5027;DHT22;2532;52.480;13.354;2024-03-08T09:53:08;7.40;81.30
5027;DHT22;2532;52.480;13.354;2024-03-08T09:55:38;7.50;80.80
5027;DHT22;2532;52.480;13.354;2024-03-08T09:58:17;7.60;80.80
5027;DHT22;2532;52.480;13.354;2024-03-08T10:01:02;7.60;79.50
5027;DHT22;2532;52.480;13.354;2024-03-08T10:03:30;7.60;79.30
5027;DHT22;2532;52.480;13.354;2024-03-08T10:05:58;7.60;79.20
5027;DHT22;2532;52.480;13.354;2024-03-08T10:08:33;7.70;79.00
5027;DHT22;2532;52.480;13.354;2024-03-08T10:11:02;7.70;78.70
5027;DHT22;2532;52.480;13.354;2024-03-08T10:13:36;7.80;78.20
5027;DHT22;2532;52.480;13.354;2024-03-08T10:16:03;7.80;77.30
5027;DHT22;2532;52.480;13.354;2024-03-08T10:18:32;7.80;77.10
5027;DHT22;2532;52.480;13.354;2024-03-08T10:21:03;7.80;77.10
5027;DHT22;2532;52.480;13.354;2024-03-08T10:23:31;7.90;77.10
5027;DHT22;2532;52.480;13.354;2024-03-08T10:26:09;7.90;76.60
5027;DHT22;2532;52.480;13.354;2024-03-08T10:28:38;7.90;75.70
5027;DHT22;2532;52.480;13.354;2024-03-08T10:31:05;8.00;75.50
5027;DHT22;2532;52.480;13.354;2024-03-08T10:33:38;8.10;74.90
5027;DHT22;2532;52.480;13.354;2024-03-08T10:36:07;8.20;74.30
5027;DHT22;2532;52.480;13.354;2024-03-08T10:38:38;8.20;74.40
5027;DHT22;2532;52.480;13.354;2024-03-08T10:41:06;8.20;74.10
5027;DHT22;2532;52.480;13.354;2024-03-08T10:43:52;8.30;73.80
5027;DHT22;2532;52.480;13.354;2024-03-08T10:46:30;8.40;73.60
5027;DHT22;2532;52.480;13.354;2024-03-08T10:48:58;8.50;72.90
5027;DHT22;2532;52.480;13.354;2024-03-08T10:51:29;8.50;72.20
5027;DHT22;2532;52.480;13.354;2024-03-08T10:53:57;8.60;72.20
5027;DHT22;2532;52.480;13.354;2024-03-08T10:56:25;8.70;71.20
5027;DHT22;2532;52.480;13.354;2024-03-08T10:58:55;8.80;70.30
5027;DHT22;2532;52.480;13.354;2024-03-08T11:01:22;8.90;70.10
5027;DHT22;2532;52.480;13.354;2024-03-08T11:03:55;9.00;70.10
5027;DHT22;2532;52.480;13.354;2024-03-08T11:06:29;9.10;69.70
5027;DHT22;2532;52.480;13.354;2024-03-08T11:08:59;9.20;68.60
5027;DHT22;2532;52.480;13.354;2024-03-08T11:11:28;9.30;67.80
5027;DHT22;2532;52.480;13.354;2024-03-08T11:13:58;9.40;67.60
5027;DHT22;2532;52.480;13.354;2024-03-08T11:16:38;9.50;67.10
5027;DHT22;2532;52.480;13.354;2024-03-08T11:19:24;9.50;66.90
5027;DHT22;2532;52.480;13.354;2024-03-08T11:22:05;9.60;66.80
5027;DHT22;2532;52.480;13.354;2024-03-08T11:24:38;9.70;65.40
5027;DHT22;2532;52.480;13.354;2024-03-08T11:27:09;9.80;65.40
5027;DHT22;2532;52.480;13.354;2024-03-08T11:29:39;9.80;66.20
5027;DHT22;2532;52.480;13.354;2024-03-08T11:32:10;9.90;65.80
5027;DHT22;2532;52.480;13.354;2024-03-08T11:34:38;9.90;67.00
5027;DHT22;2532;52.480;13.354;2024-03-08T11:37:11;10.00;65.50
5027;DHT22;2532;52.480;13.354;2024-03-08T11:39:39;10.00;65.00
5027;DHT22;2532;52.480;13.354;2024-03-08T11:42:06;10.00;64.20
5027;DHT22;2532;52.480;13.354;2024-03-08T11:44:33;10.00;65.00
5027;DHT22;2532;52.480;13.354;2024-03-08T11:47:07;10.00;64.80
5027;DHT22;2532;52.480;13.354;2024-03-08T11:49:34;10.10;63.70
5027;DHT22;2532;52.480;13.354;2024-03-08T11:52:00;10.20;62.30
5027;DHT22;2532;52.480;13.354;2024-03-08T11:54:28;10.20;62.60
5027;DHT22;2532;52.480;13.354;2024-03-08T11:56:56;10.30;63.20
5027;DHT22;2532;52.480;13.354;2024-03-08T11:59:27;10.30;62.30
5027;DHT22;2532;52.480;13.354;2024-03-08T12:02:05;10.30;60.90
5027;DHT22;2532;52.480;13.354;2024-03-08T12:04:33;10.40;60.80
5027;DHT22;2532;52.480;13.354;2024-03-08T12:07:02;10.30;60.90
5027;DHT22;2532;52.480;13.354;2024-03-08T12:09:34;10.30;60.80
5027;DHT22;2532;52.480;13.354;2024-03-08T12:12:03;10.30;61.40
5027;DHT22;2532;52.480;13.354;2024-03-08T12:14:31;10.40;60.10
5027;DHT22;2532;52.480;13.354;2024-03-08T12:16:58;10.40;59.00
5027;DHT22;2532;52.480;13.354;2024-03-08T12:19:28;10.50;59.40
5027;DHT22;2532;52.480;13.354;2024-03-08T12:21:55;10.60;59.00
5027;DHT22;2532;52.480;13.354;2024-03-08T12:24:22;10.70;58.80
5027;DHT22;2532;52.480;13.354;2024-03-08T12:26:49;10.80;58.70
5027;DHT22;2532;52.480;13.354;2024-03-08T12:29:21;10.80;57.90
5027;DHT22;2532;52.480;13.354;2024-03-08T12:31:51;10.90;56.90
5027;DHT22;2532;52.480;13.354;2024-03-08T12:34:19;10.90;56.80
5027;DHT22;2532;52.480;13.354;2024-03-08T12:36:48;10.90;57.10
5027;DHT22;2532;52.480;13.354;2024-03-08T12:39:17;10.90;57.90
5027;DHT22;2532;52.480;13.354;2024-03-08T12:41:48;10.90;60.60
5027;DHT22;2532;52.480;13.354;2024-03-08T12:44:17;10.90;62.20
5027;DHT22;2532;52.480;13.354;2024-03-08T12:46:44;10.80;62.60
5027;DHT22;2532;52.480;13.354;2024-03-08T12:49:11;10.80;61.80
5027;DHT22;2532;52.480;13.354;2024-03-08T12:51:39;10.80;62.30
5027;DHT22;2532;52.480;13.354;2024-03-08T12:54:11;10.80;62.70
5027;DHT22;2532;52.480;13.354;2024-03-08T12:56:38;10.80;63.30
5027;DHT22;2532;52.480;13.354;2024-03-08T12:59:06;10.70;62.60
5027;DHT22;2532;52.480;13.354;2024-03-08T13:01:34;10.70;62.50
5027;DHT22;2532;52.480;13.354;2024-03-08T13:04:03;10.60;62.90
5027;DHT22;2532;52.480;13.354;2024-03-08T13:06:31;10.60;63.20
5027;DHT22;2532;52.480;13.354;2024-03-08T13:08:58;10.60;63.60
5027;DHT22;2532;52.480;13.354;2024-03-08T13:11:32;10.60;63.10
5027;DHT22;2532;52.480;13.354;2024-03-08T13:14:02;10.60;63.30
5027;DHT22;2532;52.480;13.354;2024-03-08T13:16:29;10.60;63.20
5027;DHT22;2532;52.480;13.354;2024-03-08T13:18:57;10.60;63.40
5027;DHT22;2532;52.480;13.354;2024-03-08T13:21:24;10.70;63.70
5027;DHT22;2532;52.480;13.354;2024-03-08T13:23:51;10.70;63.20
5027;DHT22;2532;52.480;13.354;2024-03-08T13:26:18;10.80;62.70
5027;DHT22;2532;52.480;13.354;2024-03-08T13:28:47;10.80;62.40
5027;DHT22;2532;52.480;13.354;2024-03-08T13:31:19;10.80;62.60
5027;DHT22;2532;52.480;13.354;2024-03-08T13:33:45;10.90;62.70
5027;DHT22;2532;52.480;13.354;2024-03-08T13:36:13;10.90;62.90
5027;DHT22;2532;52.480;13.354;2024-03-08T13:38:42;10.80;63.00
5027;DHT22;2532;52.480;13.354;2024-03-08T13:41:10;10.80;63.30
5027;DHT22;2532;52.480;13.354;2024-03-08T13:43:40;10.70;63.00
5027;DHT22;2532;52.480;13.354;2024-03-08T13:46:08;10.70;62.70
5027;DHT22;2532;52.480;13.354;2024-03-08T13:48:36;10.60;62.90
5027;DHT22;2532;52.480;13.354;2024-03-08T13:51:04;10.60;62.80
5027;DHT22;2532;52.480;13.354;2024-03-08T13:53:33;10.70;62.80
5027;DHT22;2532;52.480;13.354;2024-03-08T13:56:01;10.80;62.60
5027;DHT22;2532;52.480;13.354;2024-03-08T13:58:28;10.80;62.50
5027;DHT22;2532;52.480;13.354;2024-03-08T14:00:55;10.80;62.00
5027;DHT22;2532;52.480;13.354;2024-03-08T14:03:23;10.80;61.70
5027;DHT22;2532;52.480;13.354;2024-03-08T14:05:50;10.80;61.90
5027;DHT22;2532;52.480;13.354;2024-03-08T14:08:17;10.80;62.40
5027;DHT22;2532;52.480;13.354;2024-03-08T14:10:44;10.90;62.50
5027;DHT22;2532;52.480;13.354;2024-03-08T14:13:12;11.00;62.10
5027;DHT22;2532;52.480;13.354;2024-03-08T14:15:41;11.10;61.70
5027;DHT22;2532;52.480;13.354;2024-03-08T14:18:10;11.20;61.80
5027;DHT22;2532;52.480;13.354;2024-03-08T14:20:40;11.30;61.10
5027;DHT22;2532;52.480;13.354;2024-03-08T14:23:07;11.40;60.70
5027;DHT22;2532;52.480;13.354;2024-03-08T14:25:34;11.40;60.20
5027;DHT22;2532;52.480;13.354;2024-03-08T14:28:02;11.40;60.40
5027;DHT22;2532;52.480;13.354;2024-03-08T14:30:29;11.50;59.90
5027;DHT22;2532;52.480;13.354;2024-03-08T14:33:03;11.50;59.90
5027;DHT22;2532;52.480;13.354;2024-03-08T14:35:31;11.50;59.70
5027;DHT22;2532;52.480;13.354;2024-03-08T14:37:59;11.50;59.60
5027;DHT22;2532;52.480;13.354;2024-03-08T14:40:28;11.50;59.40
5027;DHT22;2532;52.480;13.354;2024-03-08T14:42:56;11.40;59.40
5027;DHT22;2532;52.480;13.354;2024-03-08T14:45:23;11.40;59.80
5027;DHT22;2532;52.480;13.354;2024-03-08T14:47:52;11.40;59.90
5027;DHT22;2532;52.480;13.354;2024-03-08T14:50:21;11.30;60.00
5027;DHT22;2532;52.480;13.354;2024-03-08T14:52:49;11.30;59.80
5027;DHT22;2532;52.480;13.354;2024-03-08T14:55:18;11.30;60.10
5027;DHT22;2532;52.480;13.354;2024-03-08T14:57:47;11.30;60.10
5027;DHT22;2532;52.480;13.354;2024-03-08T15:00:17;11.40;60.20
5027;DHT22;2532;52.480;13.354;2024-03-08T15:02:52;11.40;59.80
5027;DHT22;2532;52.480;13.354;2024-03-08T15:05:20;11.40;59.10
5027;DHT22;2532;52.480;13.354;2024-03-08T15:07:52;11.40;59.30
5027;DHT22;2532;52.480;13.354;2024-03-08T15:10:20;11.40;59.00
5027;DHT22;2532;52.480;13.354;2024-03-08T15:12:50;11.40;59.30
5027;DHT22;2532;52.480;13.354;2024-03-08T15:15:21;11.40;59.10
5027;DHT22;2532;52.480;13.354;2024-03-08T15:17:50;11.30;58.80
5027;DHT22;2532;52.480;13.354;2024-03-08T15:20:19;11.40;58.40
5027;DHT22;2532;52.480;13.354;2024-03-08T15:22:51;11.40;58.40
5027;DHT22;2532;52.480;13.354;2024-03-08T15:25:22;11.50;58.50
5027;DHT22;2532;52.480;13.354;2024-03-08T15:27:51;11.50;58.30
5027;DHT22;2532;52.480;13.354;2024-03-08T15:30:19;11.50;58.10
5027;DHT22;2532;52.480;13.354;2024-03-08T15:32:48;11.40;58.10
5027;DHT22;2532;52.480;13.354;2024-03-08T15:35:16;11.40;58.60
5027;DHT22;2532;52.480;13.354;2024-03-08T15:37:44;11.30;58.50
5027;DHT22;2532;52.480;13.354;2024-03-08T15:40:12;11.30;58.80
5027;DHT22;2532;52.480;13.354;2024-03-08T15:42:48;11.20;58.90
5027;DHT22;2532;52.480;13.354;2024-03-08T15:45:16;11.20;58.90
5027;DHT22;2532;52.480;13.354;2024-03-08T15:47:44;11.10;58.90
5027;DHT22;2532;52.480;13.354;2024-03-08T15:50:11;11.10;58.90
5027;DHT22;2532;52.480;13.354;2024-03-08T15:52:42;11.00;59.30
5027;DHT22;2532;52.480;13.354;2024-03-08T15:55:09;10.90;59.50
5027;DHT22;2532;52.480;13.354;2024-03-08T15:57:41;10.90;59.50
5027;DHT22;2532;52.480;13.354;2024-03-08T16:00:11;10.90;59.60
5027;DHT22;2532;52.480;13.354;2024-03-08T16:02:44;10.80;59.80
5027;DHT22;2532;52.480;13.354;2024-03-08T16:05:11;10.80;60.10